Time,TemperatureF,DewpointF,PressureIn,WindDirection,WindDirectionDegrees,WindSpeedMPH,WindSpeedGustMPH,Humidity,HourlyPrecipIn,Conditions,Clouds,dailyrainin,SoftwareType,DateUTC
2013-06-17 02:00:00,52.0,49.0,30.00,North,-999,-999.0,-999.0,89,-99.99,,,-99.99,,2013-06-17 01:00:00,
2013-06-17 02:52:00,52.0,49.0,30.00,North,-999,-999.0,-999.0,89,-99.99,,,-99.99,,2013-06-17 01:52:00,
2013-06-17 03:00:00,53.0,49.0,30.02,North,-999,-999.0,-999.0,85,-99.99,,,-99.99,,2013-06-17 02:00:00,
2013-06-17 03:43:00,53.0,49.0,30.02,North,-999,-999.0,-999.0,85,-99.99,,,-99.99,,2013-06-17 02:43:00,
2013-06-17 03:53:00,53.0,49.0,30.02,North,-999,-999.0,-999.0,85,-99.99,,,-99.99,,2013-06-17 02:53:00,
2013-06-17 04:00:00,53.0,48.0,30.03,North,-999,-999.0,-999.0,82,-99.99,,,-99.99,,2013-06-17 03:00:00,
2013-06-17 04:44:00,53.0,48.0,30.03,North,-999,-999.0,-999.0,82,-99.99,,,-99.99,,2013-06-17 03:44:00,
2013-06-17 04:53:00,53.0,48.0,30.03,North,-999,-999.0,-999.0,82,-99.99,,,-99.99,,2013-06-17 03:53:00,
2013-06-17 05:00:00,52.0,48.0,30.03,North,-999,-999.0,-999.0,87,-99.99,,,-99.99,,2013-06-17 04:00:00,
2013-06-17 05:42:00,52.0,48.0,30.03,North,-999,-999.0,-999.0,87,-99.99,,,-99.99,,2013-06-17 04:42:00,
2013-06-17 05:53:00,52.0,48.0,30.03,North,-999,-999.0,-999.0,87,-99.99,,,-99.99,,2013-06-17 04:53:00,
2013-06-17 06:00:00,51.0,48.0,30.03,North,-999,-999.0,-999.0,89,-99.99,,,-99.99,,2013-06-17 05:00:00,
2013-06-17 06:43:00,51.0,48.0,30.03,North,-999,-999.0,-999.0,89,-99.99,,,-99.99,,2013-06-17 05:43:00,
2013-06-17 06:53:00,51.0,48.0,30.03,North,-999,-999.0,-999.0,89,-99.99,,,-99.99,,2013-06-17 05:53:00,
2013-06-17 07:00:00,52.0,48.0,30.03,North,-999,-999.0,-999.0,85,-99.99,,,-99.99,,2013-06-17 06:00:00,
2013-06-17 07:43:00,52.0,48.0,30.03,North,-999,-999.0,-999.0,85,-99.99,,,-99.99,,2013-06-17 06:43:00,
2013-06-17 07:53:00,52.0,48.0,30.03,North,-999,-999.0,-999.0,85,-99.99,,,-99.99,,2013-06-17 06:53:00,
2013-06-17 08:00:00,53.0,50.0,30.07,North,-999,-999.0,-999.0,88,-99.99,,,-99.99,,2013-06-17 07:00:00,
2013-06-17 08:42:00,53.0,50.0,30.07,North,-999,-999.0,-999.0,88,-99.99,,,-99.99,,2013-06-17 07:42:00,
2013-06-17 08:52:00,53.0,50.0,30.07,North,-999,-999.0,-999.0,88,-99.99,,,-99.99,,2013-06-17 07:52:00,
2013-06-17 09:00:00,55.0,50.0,30.08,North,-999,-999.0,-999.0,83,-99.99,,,-99.99,,2013-06-17 08:00:00,
2013-06-17 09:43:00,55.0,50.0,30.08,North,-999,-999.0,-999.0,83,-99.99,,,-99.99,,2013-06-17 08:43:00,
2013-06-17 09:52:00,55.0,50.0,30.08,North,-999,-999.0,-999.0,83,-99.99,,,-99.99,,2013-06-17 08:52:00,
2013-06-17 10:00:00,53.0,50.0,30.08,North,-999,-999.0,-999.0,89,-99.99,,,-99.99,,2013-06-17 09:00:00,
2013-06-17 10:43:00,53.0,50.0,30.08,North,-999,-999.0,-999.0,89,-99.99,,,-99.99,,2013-06-17 09:43:00,
2013-06-17 10:52:00,53.0,50.0,30.08,North,-999,-999.0,-999.0,89,-99.99,,,-99.99,,2013-06-17 09:52:00,
2013-06-17 11:00:00,54.0,51.0,30.08,North,-999,-999.0,-999.0,89,-99.99,,,-99.99,,2013-06-17 10:00:00,
2013-06-17 11:42:00,54.0,51.0,30.08,North,-999,-999.0,-999.0,89,-99.99,,,-99.99,,2013-06-17 10:42:00,
2013-06-17 11:53:00,54.0,51.0,30.08,North,-999,-999.0,-999.0,89,-99.99,,,-99.99,,2013-06-17 10:53:00,
2013-06-17 12:00:00,53.0,51.0,30.06,North,-999,-999.0,-999.0,91,-99.99,,,-99.99,,2013-06-17 11:00:00,
2013-06-17 12:43:00,53.0,51.0,30.06,North,-999,-999.0,-999.0,91,-99.99,,,-99.99,,2013-06-17 11:43:00,
2013-06-17 12:53:00,53.0,51.0,30.06,North,-999,-999.0,-999.0,91,-99.99,,,-99.99,,2013-06-17 11:53:00,
2013-06-17 13:00:00,59.0,51.0,30.06,North,-999,-999.0,-999.0,76,-99.99,,,-99.99,,2013-06-17 12:00:00,
2013-06-17 13:43:00,59.0,51.0,30.06,North,-999,-999.0,-999.0,76,-99.99,,,-99.99,,2013-06-17 12:43:00,
2013-06-17 13:52:00,59.0,51.0,30.06,North,-999,-999.0,-999.0,76,-99.99,,,-99.99,,2013-06-17 12:52:00,
2013-06-17 14:00:00,60.0,49.0,30.05,North,-999,-999.0,-999.0,69,-99.99,,,-99.99,,2013-06-17 13:00:00,
2013-06-17 14:43:00,60.0,49.0,30.05,North,-999,-999.0,-999.0,69,-99.99,,,-99.99,,2013-06-17 13:43:00,
2013-06-17 14:52:00,60.0,49.0,30.05,North,-999,-999.0,-999.0,69,-99.99,,,-99.99,,2013-06-17 13:52:00,
2013-06-17 15:00:00,64.0,49.0,30.06,North,-999,-999.0,-999.0,59,-99.99,,,-99.99,,2013-06-17 14:00:00,
2013-06-17 15:43:00,64.0,49.0,30.06,North,-999,-999.0,-999.0,59,-99.99,,,-99.99,,2013-06-17 14:43:00,
2013-06-17 15:53:00,64.0,49.0,30.06,North,-999,-999.0,-999.0,59,-99.99,,,-99.99,,2013-06-17 14:53:00,
2013-06-17 16:00:00,59.0,49.0,30.05,North,-999,-999.0,-999.0,69,-99.99,,,-99.99,,2013-06-17 15:00:00,
2013-06-17 16:43:00,59.0,49.0,30.05,North,-999,-999.0,-999.0,69,-99.99,,,-99.99,,2013-06-17 15:43:00,
2013-06-17 16:52:00,59.0,49.0,30.05,North,-999,-999.0,-999.0,69,-99.99,,,-99.99,,2013-06-17 15:52:00,
2013-06-17 17:00:00,62.0,48.0,30.04,North,-999,-999.0,-999.0,60,-99.99,,,-99.99,,2013-06-17 16:00:00,
2013-06-17 17:43:00,62.0,48.0,30.04,North,-999,-999.0,-999.0,60,-99.99,,,-99.99,,2013-06-17 16:43:00,
2013-06-17 17:53:00,62.0,48.0,30.04,North,-999,-999.0,-999.0,60,-99.99,,,-99.99,,2013-06-17 16:53:00,
2013-06-17 18:00:00,56.0,53.0,30.06,North,-999,-999.0,-999.0,88,-99.99,,,-99.99,,2013-06-17 17:00:00,
2013-06-17 18:43:00,56.0,53.0,30.06,North,-999,-999.0,-999.0,88,-99.99,,,-99.99,,2013-06-17 17:43:00,
2013-06-17 18:52:00,56.0,53.0,30.06,North,-999,-999.0,-999.0,88,-99.99,,,-99.99,,2013-06-17 17:52:00,
2013-06-17 19:00:00,57.0,51.0,30.06,North,-999,-999.0,-999.0,79,-99.99,,,-99.99,,2013-06-17 18:00:00,
2013-06-17 19:42:00,57.0,51.0,30.06,North,-999,-999.0,-999.0,79,-99.99,,,-99.99,,2013-06-17 18:42:00,
2013-06-17 19:53:00,57.0,51.0,30.06,North,-999,-999.0,-999.0,79,-99.99,,,-99.99,,2013-06-17 18:53:00,
2013-06-17 20:00:00,57.0,52.0,30.05,North,-999,-999.0,-999.0,83,-99.99,,,-99.99,,2013-06-17 19:00:00,
2013-06-17 20:43:00,57.0,52.0,30.05,North,-999,-999.0,-999.0,83,-99.99,,,-99.99,,2013-06-17 19:43:00,
2013-06-17 20:53:00,57.0,52.0,30.05,North,-999,-999.0,-999.0,83,-99.99,,,-99.99,,2013-06-17 19:53:00,
2013-06-17 21:00:00,56.0,51.0,30.03,North,-999,-999.0,-999.0,84,-99.99,,,-99.99,,2013-06-17 20:00:00,
2013-06-17 21:43:00,56.0,51.0,30.03,North,-999,-999.0,-999.0,84,-99.99,,,-99.99,,2013-06-17 20:43:00,
2013-06-17 21:52:00,56.0,51.0,30.03,North,-999,-999.0,-999.0,84,-99.99,,,-99.99,,2013-06-17 20:52:00,
2013-06-17 22:00:00,55.0,52.0,30.02,North,-999,-999.0,-999.0,90,-99.99,,,-99.99,,2013-06-17 21:00:00,
2013-06-17 22:43:00,55.0,52.0,30.02,North,-999,-999.0,-999.0,90,-99.99,,,-99.99,,2013-06-17 21:43:00,
2013-06-17 22:52:00,55.0,52.0,30.02,North,-999,-999.0,-999.0,90,-99.99,,,-99.99,,2013-06-17 21:52:00,
2013-06-17 23:00:00,54.0,52.0,30.02,North,-999,-999.0,-999.0,92,-99.99,,,-99.99,,2013-06-17 22:00:00,
2013-06-17 23:43:00,54.0,52.0,30.02,North,-999,-999.0,-999.0,92,-99.99,,,-99.99,,2013-06-17 22:43:00,
2013-06-17 23:53:00,54.0,52.0,30.02,North,-999,-999.0,-999.0,92,-99.99,,,-99.99,,2013-06-17 22:53:00,